Flight Track Log - Related Links

Times and Time Zones

All times are in EDT time to prevent confusion due to time zone crossing. See the DAL268 flight status page for this flight to view local times or setup timezone preferences in your user account.

Time Position Orientation Groundspeed Altitude Reporting Facility
EDT Latitude Longitude Course Direction KTS km/h meters Rate Location/Type
Mon 14:28:33 37.6234 -122.3700 38° Northeast 164 304 91  Level FlightAware ADS-B
Mon 14:28:46 37.6320 -122.3640 29° Northeast 172 319 213 582 Climbing FlightAware ADS-B
Mon 14:28:55 37.6375 -122.3580 41° Northeast 174 322 305 762 Climbing FlightAware ADS-B
Mon 14:28:58 37.6393 -122.3560 41° Northeast 178 330 366 844 Climbing FlightAware ADS-B
Mon 14:29:08 37.6452 -122.3470 50° Northeast 184 341 488 658 Climbing FlightAware ADS-B
Mon 14:29:23 37.6540 -122.3350 47° Northeast 195 360 640 472 Climbing FlightAware ADS-B
Mon 14:29:39 37.6635 -122.3200 51° Northeast 214 396 732 354 Climbing FlightAware ADS-B
Mon 14:29:54 37.6740 -122.3050 49° Northeast 237 439 823 427 Climbing FlightAware ADS-B
Mon 14:30:09 37.6854 -122.2880 50° Northeast 259 480 945 646 Climbing FlightAware ADS-B
Mon 14:30:28 37.7006 -122.2650 50° Northeast 268 496 1,189 821 Climbing FlightAware ADS-B
Mon 14:30:58 37.7256 -122.2290 49° Northeast 275 509 1,615 831 Climbing FlightAware ADS-B
Mon 14:31:01 37.7287 -122.2270 27° Northeast 277 513 1,646 732 Climbing FlightAware ADS-B
Mon 14:31:13 37.7418 -122.2200 23° Northeast 276 512 1,798 732 Climbing FlightAware ADS-B
Mon 14:31:16 37.7455 -122.2190 12° North 275 509 1,829 784 Climbing FlightAware ADS-B
Mon 14:31:20 37.7513 -122.2190 360° North 274 507 1,890 823 Climbing FlightAware ADS-B
Mon 14:31:36 37.7696 -122.2260 343° North 270 501 2,103 838 Climbing FlightAware ADS-B
Mon 14:31:44 37.7787 -122.2320 332° Northwest 269 499 2,225 851 Climbing FlightAware ADS-B
Mon 14:32:19 37.8157 -122.2630 327° Northwest 269 499 2,713 726 Climbing FlightAware ADS-B
Mon 14:32:52 37.8581 -122.2750 347° North 269 499 3,048 457 Climbing FlightAware ADS-B
Mon 14:33:07 37.8780 -122.2690 13° North 317 587 3,078 68 Climbing FlightAware ADS-B
Mon 14:33:19 37.8942 -122.2580 28° Northeast 314 581 3,078  Level FlightAware ADS-B
Mon 14:33:30 37.9052 -122.2440 45° Northeast 308 570 3,078  Level FlightAware ADS-B
Mon 14:33:38 37.9113 -122.2320 57° Northeast 308 570 3,078  Level FlightAware ADS-B
Mon 14:33:42 37.9137 -122.2260 63° Northeast 309 573 3,078 152 Level FlightAware ADS-B
Mon 14:33:50 37.9172 -122.2110 74° East 312 578 3,109 703 Climbing FlightAware ADS-B
Mon 14:34:21 37.9249 -122.1560 80° East 312 578 3,536 839 Climbing FlightAware ADS-B
Mon 14:34:51 37.9322 -122.1000 81° East 314 581 3,962 750 Climbing FlightAware ADS-B
Mon 14:35:22 37.9395 -122.0450 80° East 324 600 4,298 658 Climbing FlightAware ADS-B
Mon 14:36:06 37.9511 -121.9580 80° East 338 626 4,785 610 Climbing FlightAware ADS-B
Mon 14:36:37 37.9593 -121.8970 80° East 351 650 5,060 531 Climbing FlightAware ADS-B
Mon 14:37:08 37.9679 -121.8330 80° East 364 674 5,334 576 Climbing FlightAware ADS-B
Mon 14:37:50 37.9800 -121.7440 80° East 374 692 5,761 404 Climbing FlightAware ADS-B
Mon 14:38:16 37.9872 -121.6860 81° East 367 679 5,791 32 Climbing FlightAware ADS-B
Mon 14:38:47 37.9961 -121.6180 81° East 380 703 5,791 60 Level FlightAware ADS-B
Mon 14:39:17 38.0047 -121.5520 81° East 380 703 5,852 366 Climbing FlightAware ADS-B
Mon 14:39:47 38.0133 -121.4850 81° East 383 710 6,157 539 Climbing FlightAware ADS-B
Mon 14:40:18 38.0223 -121.4160 81° East 394 729 6,401 232 Climbing FlightAware ADS-B
Mon 14:40:50 38.0318 -121.3420 81° East 400 740 6,401 112 Level FlightAware ADS-B
Mon 14:41:07 38.0368 -121.3040 81° East 403 747 6,492 286 Climbing FlightAware ADS-B
Mon 14:41:22 38.0443 -121.2700 74° East 409 758 6,553 233 Climbing FlightAware ADS-B
Mon 14:41:54 38.0650 -121.1960 70° East 429 795 6,675 376 Climbing FlightAware ADS-B
Mon 14:42:30 38.0900 -121.1100 70° East 438 811 6,980 490 Climbing FlightAware ADS-B
Mon 14:43:05 38.1130 -121.0240 71° East 446 826 7,254 486 Climbing FlightAware ADS-B
Mon 14:43:34 38.1280 -120.9500 76° East 451 835 7,498 464 Climbing FlightAware ADS-B
Mon 14:44:12 38.1460 -120.8500 77° East 458 848 7,772 409 Climbing FlightAware ADS-B
Mon 14:44:50 38.1640 -120.7500 77° East 466 863 8,016 392 Climbing FlightAware ADS-B
Mon 14:45:22 38.1790 -120.6630 78° East 472 874 8,230 418 Climbing FlightAware ADS-B
Mon 14:46:00 38.1970 -120.5600 77° East 477 884 8,504 406 Climbing FlightAware ADS-B
Mon 14:46:34 38.2130 -120.4670 78° East 481 892 8,717 418 Climbing FlightAware ADS-B
Mon 14:47:10 38.2300 -120.3690 78° East 478 885 8,992 376 Climbing FlightAware ADS-B
Mon 14:47:42 38.2450 -120.2810 78° East 477 884 9,144 134 Climbing FlightAware ADS-B
Mon 14:48:18 38.2620 -120.1810 78° East 481 892 9,144 131 Level FlightAware ADS-B
Mon 14:48:52 38.2770 -120.0920 78° East 479 887 9,296 418 Climbing FlightAware ADS-B
Mon 14:49:28 38.2940 -119.9910 78° East 471 872 9,632 486 Climbing FlightAware ADS-B
Mon 14:50:11 38.3140 -119.8750 78° East 470 871 9,936 324 Climbing FlightAware ADS-B
Mon 14:50:47 38.3300 -119.7770 78° East 471 872 10,058 109 Climbing FlightAware ADS-B
Mon 14:51:18 38.3440 -119.6940 78° East 470 871 10,058 164 Level FlightAware ADS-B
Mon 14:51:54 38.3610 -119.5940 78° East 467 864 10,241 330 Climbing FlightAware ADS-B
Mon 14:52:30 38.3760 -119.4990 79° East 466 863 10,455 305 Climbing FlightAware ADS-B
Mon 14:53:06 38.3920 -119.4010 78° East 471 872 10,607 186 Climbing FlightAware ADS-B
Mon 14:53:39 38.4070 -119.3130 78° East 474 877 10,668 54 Climbing FlightAware ADS-B
Mon 14:54:14 38.4220 -119.2160 79° East 473 875 10,668  Level FlightAware ADS-B
Mon 14:54:52 38.4390 -119.1120 78° East 474 877 10,668 173 Level FlightAware ADS-B
Mon 14:55:28 38.4550 -119.0130 78° East 472 874 10,881 376 Climbing FlightAware ADS-B
Mon 14:56:00 38.4690 -118.9270 78° East 468 867 11,095 296 Climbing FlightAware ADS-B
Mon 14:56:36 38.4840 -118.8300 79° East 471 872 11,217 152 Climbing FlightAware ADS-B
Mon 14:57:12 38.5000 -118.7320 78° East 472 874 11,278 52 Climbing FlightAware ADS-B
Mon 14:57:47 38.5140 -118.6370 79° East 475 880 11,278  Level FlightAware ADS-B
Mon 14:58:20 38.5290 -118.5450 78° East 478 885 11,278  Level FlightAware ADS-B
Mon 14:58:55 38.5430 -118.4530 79° East 476 882 11,278  Level FlightAware ADS-B
Mon 14:59:32 38.5590 -118.3470 79° East 477 884 11,278  Level FlightAware ADS-B
Mon 15:00:04 38.5730 -118.2580 79° East 479 887 11,278  Level FlightAware ADS-B
Mon 15:00:40 38.5880 -118.1590 79° East 480 888 11,278  Level FlightAware ADS-B
Mon 15:01:14 38.6030 -118.0640 79° East 480 888 11,278  Level FlightAware ADS-B
Mon 15:02:04 38.6220 -117.9370 79° East 479 887 11,278  Level FlightAware ADS-B
Mon 15:02:40 38.6350 -117.8520 79° East 479 887 11,278  Level FlightAware ADS-B
Mon 15:03:14 38.6470 -117.7710 79° East 479 887 11,278  Level FlightAware ADS-B
Mon 15:03:50 38.6600 -117.6860 79° East 479 887 11,278  Level FlightAware ADS-B
Mon 15:04:24 38.6720 -117.6060 79° East 479 887 11,278  Level FlightAware ADS-B
Mon 15:05:02 38.6860 -117.5160 79° East 479 887 11,278  Level FlightAware ADS-B
Mon 15:05:38 38.6990 -117.4300 79° East 479 887 11,278  Level FlightAware ADS-B
Mon 15:06:14 38.7120 -117.3450 79° East 479 887 11,278  Level FlightAware ADS-B
Mon 15:06:51 38.7250 -117.2570 79° East 479 887 11,278  Level FlightAware ADS-B
Mon 15:07:37 38.7410 -117.1480 79° East 479 887 11,278  Level FlightAware ADS-B
Mon 15:08:14 38.7550 -117.0600 78° East 479 887 11,278  Level FlightAware ADS-B
Mon 15:08:51 38.7680 -116.9730 79° East 479 887 11,278  Level FlightAware ADS-B
Mon 15:09:28 38.7810 -116.8850 79° East 479 887 11,278  Level FlightAware ADS-B
Mon 15:10:04 38.7940 -116.8000 79° East 479 887 11,278  Level FlightAware ADS-B
Mon 15:10:41 38.8070 -116.7120 79° East 479 887 11,278  Level FlightAware ADS-B
Mon 15:11:19 38.8210 -116.6220 79° East 479 887 11,278  Level FlightAware ADS-B
Mon 15:12:06 38.8586 -116.2750 79° East 475 880 11,278  Level Oakland Center
Mon 15:13:07 38.8811 -116.1053 80° East 479 887 11,278  Level Oakland Center
Mon 15:14:32 38.9111 -115.8717 81° East 475 880 11,278  Level Salt Lake Center
Mon 15:15:34 38.9333 -115.7036 80° East 476 882 11,278  Level Salt Lake Center
Mon 15:16:36 38.9544 -115.5369 81° East 473 875 11,278  Level Salt Lake Center
Mon 15:17:37 38.9811 -115.3322 80° East 477 884 11,278  Level Salt Lake Center
Mon 15:18:39 39.0017 -115.1647 81° East 476 882 11,278  Level Salt Lake Center
Mon 15:19:41 39.0231 -114.9967 81° East 476 882 11,278  Level Salt Lake Center
Mon 15:20:43 39.0436 -114.8286 81° East 477 884 11,278  Level Salt Lake Center
Mon 15:26:34 39.1610 -113.8240 81° East 481 892 11,278  Level FlightAware ADS-B
Mon 15:27:30 39.1790 -113.6640 82° East 481 892 11,278  Level FlightAware ADS-B
Mon 15:28:02 39.1900 -113.5720 81° East 482 893 11,278  Level FlightAware ADS-B
Mon 15:28:38 39.2010 -113.4700 82° East 483 895 11,278  Level FlightAware ADS-B
Mon 15:29:17 39.2120 -113.3750 81° East 483 895 11,278  Level FlightAware ADS-B
Mon 15:29:53 39.2230 -113.2880 81° East 483 895 11,278  Level FlightAware ADS-B
Mon 15:30:05 39.2252 -113.2440 86° East 486 900 11,278  Level FlightAware ADS-B
Mon 15:30:38 39.2373 -113.1310 82° East 486 900 11,278  Level FlightAware ADS-B
Mon 15:31:12 39.2475 -113.0360 82° East 487 901 11,278  Level FlightAware ADS-B
Mon 15:31:42 39.2566 -112.9490 82° East 487 901 11,278  Level FlightAware ADS-B
Mon 15:32:15 39.2639 -112.8790 82° East 488 904 11,278  Level FlightAware ADS-B
Mon 15:32:46 39.2765 -112.7570 82° East 489 906 11,278  Level FlightAware ADS-B
Mon 15:33:17 39.2856 -112.6690 82° East 489 906 11,278  Level FlightAware ADS-B
Mon 15:33:47 39.2941 -112.5860 82° East 489 906 11,278  Level FlightAware ADS-B
Mon 15:33:56 39.2972 -112.5580 82° East 490 908 11,278  Level FlightAware ADS-B
Mon 15:34:08 39.3028 -112.5250 78° East 494 914 11,278  Level FlightAware ADS-B
Mon 15:34:40 39.3250 -112.4370 72° East 499 924 11,278  Level FlightAware ADS-B
Mon 15:35:11 39.3505 -112.3510 69° East 500 925 11,278  Level FlightAware ADS-B
Mon 15:35:42 39.3754 -112.2690 69° East 500 925 11,278  Level FlightAware ADS-B
Mon 15:36:13 39.3848 -112.2390 68° East 501 929 11,278  Level FlightAware ADS-B
Mon 15:36:24 39.3983 -112.1950 68° East 501 929 11,278  Level FlightAware ADS-B
Mon 15:36:54 39.4403 -112.0600 68° East 501 929 11,278  Level FlightAware ADS-B
Mon 15:37:25 39.4665 -111.9760 68° East 502 930 11,278  Level FlightAware ADS-B
Mon 15:37:57 39.4925 -111.8920 68° East 503 932 11,278  Level FlightAware ADS-B
Mon 15:38:31 39.5148 -111.8200 68° East 505 935 11,278  Level FlightAware ADS-B
Mon 15:39:07 39.5232 -111.7920 69° East 505 935 11,278  Level FlightAware ADS-B
Mon 15:39:37 39.5809 -111.6030 68° East 507 938 11,278  Level FlightAware ADS-B
Mon 15:40:08 39.6061 -111.5200 68° East 508 941 11,278  Level FlightAware ADS-B
Mon 15:40:40 39.6308 -111.4280 71° East 506 937 11,278  Level FlightAware ADS-B
Mon 15:40:56 39.6394 -111.3840 76° East 504 933 11,278  Level FlightAware ADS-B
Mon 15:41:29 39.6492 -111.3170 79° East 503 932 11,278  Level FlightAware ADS-B
Mon 15:41:43 39.6514 -111.3020 79° East 504 933 11,278  Level FlightAware ADS-B
Mon 15:42:13 39.6718 -111.1530 80° East 505 935 11,278  Level FlightAware ADS-B
Mon 15:42:44 39.6836 -111.0670 80° East 505 935 11,278  Level FlightAware ADS-B
Mon 15:43:16 39.6923 -111.0030 80° East 504 933 11,278  Level FlightAware ADS-B
Mon 15:43:50 39.7114 -110.8610 80° East 503 932 11,278  Level FlightAware ADS-B
Mon 15:44:22 39.7240 -110.7670 80° East 502 930 11,278  Level FlightAware ADS-B
Mon 15:45:18 39.7460 -110.6000 80° East 501 929 11,278  Level FlightAware ADS-B
Mon 15:45:54 39.7590 -110.5070 80° East 499 924 11,278  Level FlightAware ADS-B
Mon 15:46:29 39.7720 -110.4040 81° East 497 921 11,278  Level FlightAware ADS-B
Mon 15:47:01 39.7850 -110.3010 81° East 494 914 11,278  Level FlightAware ADS-B
Mon 15:47:36 39.7990 -110.1990 80° East 492 911 11,278  Level FlightAware ADS-B
Mon 15:48:12 39.8120 -110.0910 81° East 489 906 11,278  Level FlightAware ADS-B
Mon 15:48:50 39.8240 -109.9980 80° East 488 904 11,278  Level FlightAware ADS-B
Mon 15:49:25 39.8390 -109.8820 80° East 485 898 11,278  Level FlightAware ADS-B
Mon 15:50:08 39.8540 -109.7580 81° East 486 900 11,278  Level FlightAware ADS-B
Mon 15:50:43 39.8660 -109.6640 81° East 486 900 11,278  Level FlightAware ADS-B
Mon 15:51:16 39.8790 -109.5600 81° East 487 901 11,278  Level FlightAware ADS-B
Mon 15:51:49 39.8900 -109.4660 81° East 488 904 11,278  Level FlightAware ADS-B
Mon 15:52:25 39.9030 -109.3620 81° East 489 906 11,278  Level FlightAware ADS-B
Mon 15:53:00 39.9150 -109.2600 81° East 489 906 11,278  Level FlightAware ADS-B
Mon 15:53:36 39.9280 -109.1560 81° East 491 909 11,278  Level FlightAware ADS-B
Mon 15:54:12 39.9400 -109.0480 82° East 492 911 11,278  Level FlightAware ADS-B
Mon 15:54:47 39.9520 -108.9520 81° East 493 912 11,278  Level FlightAware ADS-B
Mon 15:55:20 39.9620 -108.8660 81° East 494 914 11,278  Level FlightAware ADS-B
Mon 15:55:54 39.9750 -108.7560 81° East 494 914 11,278  Level FlightAware ADS-B
Mon 15:56:31 39.9880 -108.6410 82° East 495 917 11,278  Level FlightAware ADS-B
Mon 15:57:07 39.9990 -108.5460 81° East 496 919 11,278 106 Level FlightAware ADS-B
Mon 15:57:40 40.0110 -108.4390 82° East 496 919 11,400 242 Climbing FlightAware ADS-B
Mon 15:58:15 40.0220 -108.3390 82° East 495 917 11,552 272 Climbing FlightAware ADS-B
Mon 15:58:54 40.0340 -108.2290 82° East 494 914 11,735 292 Climbing FlightAware ADS-B
Mon 15:59:24 40.0450 -108.1310 82° East 490 908 11,887 139 Climbing FlightAware ADS-B
Mon 16:00:00 40.0560 -108.0260 82° East 487 901 11,887  Level FlightAware ADS-B
Mon 16:00:39 40.0700 -107.9170 80° East 488 904 11,887  Level FlightAware ADS-B
Mon 16:01:11 40.0850 -107.8210 78° East 489 906 11,887  Level FlightAware ADS-B
Mon 16:01:46 40.1020 -107.7210 77° East 492 911 11,887  Level FlightAware ADS-B
Mon 16:02:22 40.1190 -107.6210 77° East 493 912 11,887  Level FlightAware ADS-B
Mon 16:02:55 40.1360 -107.5190 78° East 494 914 11,887  Level FlightAware ADS-B
Mon 16:03:33 40.1540 -107.4080 78° East 494 914 11,887  Level FlightAware ADS-B
Mon 16:04:14 40.1730 -107.2900 78° East 493 912 11,887  Level FlightAware ADS-B
Mon 16:04:51 40.1910 -107.1810 78° East 494 914 11,887  Level FlightAware ADS-B
Mon 16:05:31 40.2100 -107.0660 78° East 494 914 11,887  Level FlightAware ADS-B
Mon 16:06:07 40.2260 -106.9700 78° East 494 914 11,887  Level FlightAware ADS-B
Mon 16:06:49 40.2460 -106.8460 78° East 494 914 11,887  Level FlightAware ADS-B
Mon 16:07:24 40.2630 -106.7350 79° East 494 914 11,887  Level FlightAware ADS-B
Mon 16:08:00 40.2800 -106.6300 78° East 495 917 11,887  Level FlightAware ADS-B
Mon 16:08:36 40.2970 -106.5220 78° East 495 917 11,887  Level FlightAware ADS-B
Mon 16:09:08 40.3110 -106.4280 79° East 495 917 11,887  Level FlightAware ADS-B
Mon 16:09:44 40.3280 -106.3220 78° East 494 914 11,887  Level FlightAware ADS-B
Mon 16:10:20 40.3440 -106.2190 78° East 493 912 11,887  Level FlightAware ADS-B
Mon 16:10:52 40.3590 -106.1220 78° East 492 911 11,887  Level FlightAware ADS-B
Mon 16:11:26 40.3740 -106.0250 78° East 489 906 11,887  Level FlightAware ADS-B
Mon 16:11:58 40.3870 -105.9340 79° East 488 904 11,887  Level FlightAware ADS-B
Mon 16:12:34 40.4030 -105.8310 78° East 489 906 11,887  Level FlightAware ADS-B
Mon 16:13:10 40.4190 -105.7260 79° East 489 906 11,887  Level FlightAware ADS-B
Mon 16:13:44 40.4410 -105.6270 74° East 491 909 11,887  Level FlightAware ADS-B
Mon 16:14:20 40.4700 -105.5270 69° East 492 911 11,887  Level FlightAware ADS-B
Mon 16:14:48 40.4940 -105.4480 68° East 491 909 11,887  Level FlightAware ADS-B
Mon 16:15:24 40.5230 -105.3480 69° East 491 909 11,887  Level FlightAware ADS-B
Mon 16:15:58 40.5450 -105.2530 73° East 491 909 11,887  Level FlightAware ADS-B
Mon 16:16:32 40.5630 -105.1530 77° East 492 911 11,887  Level FlightAware ADS-B
Mon 16:17:04 40.5800 -105.0630 76° East 490 908 11,887  Level FlightAware ADS-B
Mon 16:17:40 40.6000 -104.9580 76° East 491 909 11,887  Level FlightAware ADS-B
Mon 16:18:18 40.6140 -104.8450 81° East 490 908 11,887  Level FlightAware ADS-B
Mon 16:18:52 40.6230 -104.7450 83° East 488 904 11,887  Level FlightAware ADS-B
Mon 16:19:28 40.6300 -104.6400 85° East 488 904 11,887  Level FlightAware ADS-B
Mon 16:20:04 40.6380 -104.5320 84° East 486 900 11,887  Level FlightAware ADS-B
Mon 16:20:37 40.6450 -104.4370 84° East 486 900 11,887  Level FlightAware ADS-B
Mon 16:21:09 40.6510 -104.3410 85° East 485 898 11,887  Level FlightAware ADS-B
Mon 16:21:49 40.6590 -104.2250 85° East 484 896 11,887  Level FlightAware ADS-B
Mon 16:22:21 40.6650 -104.1320 85° East 484 896 11,887  Level FlightAware ADS-B
Mon 16:22:57 40.6720 -104.0250 85° East 482 893 11,887  Level FlightAware ADS-B
Mon 16:23:39 40.6800 -103.9020 85° East 482 893 11,887  Level FlightAware ADS-B
Mon 16:24:17 40.6870 -103.7940 85° East 482 893 11,887  Level FlightAware ADS-B
Mon 16:24:47 40.6930 -103.7080 85° East 482 893 11,887  Level FlightAware ADS-B
Mon 16:25:25 40.7000 -103.5960 85° East 482 893 11,887  Level FlightAware ADS-B
Mon 16:26:09 40.7080 -103.4680 85° East 480 888 11,887  Level FlightAware ADS-B
Mon 16:26:41 40.7140 -103.3730 85° East 478 885 11,887  Level FlightAware ADS-B
Mon 16:27:17 40.7200 -103.2670 86° East 477 884 11,887  Level FlightAware ADS-B
Mon 16:27:49 40.7250 -103.1740 86° East 478 885 11,887  Level FlightAware ADS-B
Mon 16:28:25 40.7310 -103.0710 86° East 478 885 11,887  Level FlightAware ADS-B
Mon 16:29:01 40.7370 -102.9680 86° East 479 887 11,887  Level FlightAware ADS-B
Mon 16:29:39 40.7440 -102.8540 85° East 479 887 11,887  Level FlightAware ADS-B
Mon 16:30:09 40.7480 -102.7710 86° East 479 887 11,887  Level FlightAware ADS-B
Mon 16:30:47 40.7540 -102.6600 86° East 478 885 11,887  Level FlightAware ADS-B
Mon 16:31:23 40.7600 -102.5560 86° East 478 885 11,887  Level FlightAware ADS-B
Mon 16:31:59 40.7660 -102.4520 86° East 479 887 11,887  Level FlightAware ADS-B
Mon 16:32:31 40.7700 -102.3580 87° East 478 885 11,887  Level FlightAware ADS-B
Mon 16:33:07 40.7760 -102.2510 86° East 477 884 11,887  Level FlightAware ADS-B
Mon 16:33:43 40.7810 -102.1490 86° East 476 882 11,887  Level FlightAware ADS-B
Mon 16:34:25 40.7870 -102.0400 86° East 476 882 11,887  Level FlightAware ADS-B
Mon 16:35:01 40.7910 -101.9510 87° East 476 882 11,887  Level FlightAware ADS-B
Mon 16:35:32 40.7960 -101.8330 87° East 476 882 11,887  Level FlightAware ADS-B
Mon 16:36:09 40.8010 -101.7410 86° East 476 882 11,887  Level FlightAware ADS-B
Mon 16:36:45 40.8060 -101.6530 86° East 476 882 11,887  Level FlightAware ADS-B
Mon 16:37:22 40.8110 -101.5610 86° East 476 882 11,887  Level FlightAware ADS-B
Mon 16:38:00 40.8160 -101.4670 86° East 476 882 11,887  Level FlightAware ADS-B
Mon 16:38:37 40.8200 -101.3760 87° East 476 882 11,887  Level FlightAware ADS-B
Mon 16:39:13 40.8250 -101.2870 86° East 476 882 11,887  Level FlightAware ADS-B
Mon 16:39:49 40.8300 -101.1990 86° East 476 882 11,887  Level FlightAware ADS-B
Mon 16:40:26 40.8350 -101.1070 86° East 476 882 11,887  Level FlightAware ADS-B
Mon 16:41:02 40.8390 -101.0180 87° East 476 882 11,887  Level FlightAware ADS-B
Mon 16:41:36 40.8440 -100.9340 85° East 476 882 11,887  Level FlightAware ADS-B
Mon 16:42:12 40.8480 -100.8460 87° East 476 882 11,887  Level FlightAware ADS-B
Mon 16:42:50 40.8530 -100.7520 86° East 476 882 11,887  Level FlightAware ADS-B
Mon 16:43:24 40.8580 -100.6680 85° East 476 882 11,887  Level FlightAware ADS-B
Mon 16:44:02 40.8630 -100.5740 86° East 476 882 11,887  Level FlightAware ADS-B
Mon 16:44:39 40.8680 -100.4830 86° East 476 882 11,887  Level FlightAware ADS-B
Mon 16:45:15 40.8720 -100.3940 87° East 476 882 11,887  Level FlightAware ADS-B
Mon 16:46:48 40.8715 -99.8853 90° East 470 871 11,887  Level FlightAware ADS-B
Mon 16:47:23 40.8745 -99.7856 88° East 470 871 11,887  Level FlightAware ADS-B
Mon 16:48:47 40.8810 -99.5550 88° East 470 871 11,887  Level FlightAware ADS-B
Mon 16:49:32 40.8840 -99.4260 88° East 471 872 11,887  Level FlightAware ADS-B
Mon 16:49:43 40.8855 -99.3840 87° East 472 874 11,887  Level FlightAware ADS-B
Mon 16:50:13 40.8877 -99.2974 88° East 473 875 11,887  Level FlightAware ADS-B
Mon 16:50:43 40.8899 -99.2109 88° East 474 877 11,887  Level FlightAware ADS-B
Mon 16:51:15 40.8921 -99.1189 88° East 475 880 11,887  Level FlightAware ADS-B
Mon 16:52:07 40.8950 -98.9750 88° East 474 877 11,887  Level FlightAware ADS-B
Mon 16:52:17 40.8962 -98.9399 87° East 474 877 11,887  Level FlightAware ADS-B
Mon 16:52:38 40.8959 -98.8775 90° East 475 880 11,887  Level FlightAware ADS-B
Mon 16:52:50 40.8918 -98.8434 99° East 471 872 11,887  Level FlightAware ADS-B
Mon 16:53:21 40.8719 -98.7610 108° East 471 872 11,887  Level FlightAware ADS-B
Mon 16:53:51 40.8501 -98.6796 109° East 471 872 11,887  Level FlightAware ADS-B
Mon 16:54:28 40.8237 -98.5790 109° East 472 874 11,887  Level FlightAware ADS-B
Mon 16:55:03 40.7983 -98.4824 109° East 471 872 11,887  Level FlightAware ADS-B
Mon 16:55:34 40.7767 -98.3998 109° East 471 872 11,887  Level FlightAware ADS-B
Mon 16:56:04 40.7555 -98.3178 109° East 471 872 11,887  Level FlightAware ADS-B
Mon 16:56:43 40.7283 -98.2115 109° East 470 871 11,887  Level FlightAware ADS-B
Mon 16:57:14 40.7076 -98.1298 108° East 471 872 11,887  Level FlightAware ADS-B
Mon 16:57:44 40.6868 -98.0481 109° East 471 872 11,887  Level FlightAware ADS-B
Mon 16:58:14 40.6657 -97.9666 109° East 471 872 11,887  Level FlightAware ADS-B
Mon 16:58:45 40.6441 -97.8829 109° East 471 872 11,887  Level FlightAware ADS-B
Mon 16:59:15 40.6229 -97.8009 109° East 471 872 11,887  Level FlightAware ADS-B
Mon 16:59:45 40.6017 -97.7195 109° East 473 875 11,887  Level FlightAware ADS-B
Mon 17:00:15 40.5807 -97.6367 108° East 474 877 11,887  Level FlightAware ADS-B
Mon 17:00:48 40.5585 -97.5472 108° East 472 874 11,887  Level FlightAware ADS-B
Mon 17:01:20 40.5374 -97.4608 108° East 471 872 11,887  Level FlightAware ADS-B
Mon 17:01:50 40.5166 -97.3792 109° East 470 871 11,887  Level FlightAware ADS-B
Mon 17:02:14 40.5003 -97.3160 109° East 468 867 11,887  Level FlightAware ADS-B
Mon 17:02:19 40.4974 -97.3008 104° East 469 869 11,887  Level FlightAware ADS-B
Mon 17:02:26 40.4953 -97.2808 98° East 470 871 11,887  Level FlightAware ADS-B
Mon 17:02:56 40.4918 -97.1951 93° East 473 875 11,887  Level FlightAware ADS-B
Mon 17:03:30 40.4869 -97.0994 94° East 474 877 11,887  Level FlightAware ADS-B
Mon 17:04:00 40.4808 -97.0127 95° East 472 874 11,887  Level FlightAware ADS-B
Mon 17:04:31 40.4738 -96.9263 96° East 473 875 11,887  Level FlightAware ADS-B
Mon 17:05:01 40.4665 -96.8410 96° East 473 875 11,887  Level FlightAware ADS-B
Mon 17:05:30 40.4594 -96.7582 96° East 474 877 11,887  Level FlightAware ADS-B
Mon 17:06:00 40.4544 -96.6718 94° East 474 877 11,887  Level FlightAware ADS-B
Mon 17:06:30 40.4500 -96.5864 94° East 473 875 11,887  Level FlightAware ADS-B
Mon 17:07:01 40.4451 -96.4984 94° East 473 875 11,887  Level FlightAware ADS-B
Mon 17:07:32 40.4399 -96.4086 94° East 473 875 11,887  Level FlightAware ADS-B
Mon 17:08:03 40.4346 -96.3199 94° East 473 875 11,887  Level FlightAware ADS-B
Mon 17:08:33 40.4293 -96.2341 95° East 474 877 11,887  Level FlightAware ADS-B
Mon 17:09:04 40.4239 -96.1471 95° East 475 880 11,887  Level FlightAware ADS-B
Mon 17:09:40 40.4173 -96.0434 95° East 476 882 11,887  Level FlightAware ADS-B
Mon 17:10:10 40.4118 -95.9565 95° East 477 884 11,887  Level FlightAware ADS-B
Mon 17:10:41 40.4060 -95.8665 95° East 478 885 11,887  Level FlightAware ADS-B
Mon 17:11:11 40.4004 -95.7802 95° East 478 885 11,887  Level FlightAware ADS-B
Mon 17:11:41 40.3948 -95.6938 95° East 478 885 11,887  Level FlightAware ADS-B
Mon 17:12:12 40.3891 -95.6068 95° East 478 885 11,887  Level FlightAware ADS-B
Mon 17:12:42 40.3833 -95.5193 95° East 479 887 11,887  Level FlightAware ADS-B
Mon 17:13:12 40.3774 -95.4326 95° East 478 885 11,887  Level FlightAware ADS-B
Mon 17:13:52 40.3695 -95.3176 95° East 479 887 11,887  Level FlightAware ADS-B
Mon 17:14:24 40.3633 -95.2266 95° East 480 888 11,887  Level FlightAware ADS-B
Mon 17:14:54 40.3570 -95.1372 95° East 481 892 11,887  Level FlightAware ADS-B
Mon 17:15:25 40.3507 -95.0487 95° East 481 892 11,887  Level FlightAware ADS-B
Mon 17:15:57 40.3440 -94.9560 95° East 482 893 11,887  Level FlightAware ADS-B
Mon 17:16:27 40.3377 -94.8682 95° East 482 893 11,887  Level FlightAware ADS-B
Mon 17:16:58 40.3311 -94.7792 96° East 482 893 11,887  Level FlightAware ADS-B
Mon 17:17:28 40.3247 -94.6917 95° East 482 893 11,887  Level FlightAware ADS-B
Mon 17:17:58 40.3181 -94.6040 96° East 482 893 11,887  Level FlightAware ADS-B
Mon 17:18:30 40.3112 -94.5132 96° East 482 893 11,887  Level FlightAware ADS-B
Mon 17:19:00 40.3044 -94.4242 96° East 482 893 11,887  Level FlightAware ADS-B
Mon 17:19:31 40.2977 -94.3367 96° East 482 893 11,887  Level FlightAware ADS-B
Mon 17:20:01 40.2909 -94.2497 96° East 482 893 11,887  Level FlightAware ADS-B
Mon 17:20:36 40.2827 -94.1465 96° East 484 896 11,887  Level FlightAware ADS-B
Mon 17:21:14 40.2740 -94.0370 96° East 484 896 11,887  Level FlightAware ADS-B
Mon 17:22:01 40.2629 -93.8991 96° East 483 895 11,887  Level FlightAware ADS-B
Mon 17:22:38 40.2543 -93.7945 96° East 483 895 11,887  Level FlightAware ADS-B
Mon 17:23:08 40.2470 -93.7062 96° East 482 893 11,887  Level FlightAware ADS-B
Mon 17:23:43 40.2380 -93.6040 97° East 480 888 11,887  Level FlightAware ADS-B
Mon 17:23:52 40.2364 -93.5801 95° East 481 892 11,887  Level FlightAware ADS-B
Mon 17:24:23 40.2289 -93.4911 96° East 480 888 11,887  Level FlightAware ADS-B
Mon 17:24:53 40.2216 -93.4050 96° East 479 887 11,887  Level FlightAware ADS-B
Mon 17:25:23 40.2140 -93.3180 96° East 478 885 11,887  Level FlightAware ADS-B
Mon 17:25:54 40.2063 -93.2292 96° East 478 885 11,887  Level FlightAware ADS-B
Mon 17:26:25 40.1985 -93.1401 97° East 478 885 11,887  Level FlightAware ADS-B
Mon 17:26:55 40.1908 -93.0530 97° East 478 885 11,887  Level FlightAware ADS-B
Mon 17:27:25 40.1831 -92.9670 97° East 478 885 11,887  Level FlightAware ADS-B
Mon 17:27:56 40.1754 -92.8806 97° East 478 885 11,887  Level FlightAware ADS-B
Mon 17:28:37 40.1646 -92.7623 97° East 478 885 11,887  Level FlightAware ADS-B
Mon 17:29:25 40.1520 -92.6280 97° East 478 885 11,887  Level FlightAware ADS-B
Mon 17:30:07 40.1410 -92.5060 97° East 478 885 11,887  Level FlightAware ADS-B
Mon 17:30:41 40.1320 -92.4120 97° East 478 885 11,887  Level FlightAware ADS-B
Mon 17:31:13 40.1230 -92.3200 97° East 478 885 11,887  Level FlightAware ADS-B
Mon 17:31:52 40.1140 -92.2190 97° East 478 885 11,887  Level FlightAware ADS-B
Mon 17:32:25 40.1030 -92.1110 98° East 478 885 11,887  Level FlightAware ADS-B
Mon 17:32:57 40.0940 -92.0190 97° East 478 885 11,887  Level FlightAware ADS-B
Mon 17:33:41 40.0820 -91.8920 97° East 477 884 11,887  Level FlightAware ADS-B
Mon 17:34:19 40.0710 -91.7840 98° East 477 884 11,887  Level FlightAware ADS-B
Mon 17:34:54 40.0610 -91.6860 98° East 476 882 11,887  Level FlightAware ADS-B
Mon 17:35:41 40.0470 -91.5540 98° East 477 884 11,887  Level FlightAware ADS-B
Mon 17:36:20 40.0370 -91.4480 97° East 476 882 11,887  Level FlightAware ADS-B
Mon 17:36:57 40.0260 -91.3450 98° East 476 882 11,887  Level FlightAware ADS-B
Mon 17:37:46 40.0100 -91.1960 98° East 476 882 11,887  Level FlightAware ADS-B
Mon 17:38:23 39.9990 -91.0940 98° East 476 882 11,887  Level FlightAware ADS-B
Mon 17:38:59 39.9880 -90.9900 98° East 476 882 11,887  Level FlightAware ADS-B
Mon 17:39:35 39.9780 -90.8910 97° East 476 882 11,887  Level FlightAware ADS-B
Mon 17:40:13 39.9660 -90.7860 98° East 476 882 11,887  Level FlightAware ADS-B
Mon 17:40:51 39.9550 -90.6820 98° East 476 882 11,887  Level FlightAware ADS-B
Mon 17:41:25 39.9440 -90.5830 98° East 476 882 11,887  Level FlightAware ADS-B
Mon 17:42:01 39.9320 -90.4740 98° East 477 884 11,887  Level FlightAware ADS-B
Mon 17:42:41 39.9190 -90.3620 99° East 477 884 11,887  Level FlightAware ADS-B
Mon 17:43:16 39.9080 -90.2610 98° East 477 884 11,887  Level FlightAware ADS-B
Mon 17:43:52 39.8960 -90.1620 99° East 477 884 11,887  Level FlightAware ADS-B
Mon 17:44:24 39.8860 -90.0690 98° East 476 882 11,887  Level FlightAware ADS-B
Mon 17:44:58 39.8760 -89.9830 99° East 475 880 11,887  Level FlightAware ADS-B
Mon 17:45:36 39.8620 -89.8700 99° East 474 877 11,887  Level FlightAware ADS-B
Mon 17:46:10 39.8510 -89.7720 98° East 473 875 11,887  Level FlightAware ADS-B
Mon 17:46:44 39.8420 -89.6810 97° East 472 874 11,887  Level FlightAware ADS-B
Mon 17:47:22 39.8400 -89.5700 91° East 473 875 11,887  Level FlightAware ADS-B
Mon 17:47:56 39.8410 -89.4800 89° East 472 874 11,887  Level FlightAware ADS-B
Mon 17:48:30 39.8410 -89.3750 90° East 472 874 11,887  Level FlightAware ADS-B
Mon 17:49:06 39.8420 -89.2720 89° East 471 872 11,887  Level FlightAware ADS-B
Mon 17:49:40 39.8420 -89.1790 90° East 471 872 11,887  Level FlightAware ADS-B
Mon 17:50:17 39.8420 -89.0770 90° East 470 871 11,887  Level FlightAware ADS-B
Mon 17:50:50 39.8420 -88.9820 90° East 469 869 11,887  Level FlightAware ADS-B
Mon 17:51:32 39.8420 -88.8660 90° East 469 869 11,887  Level FlightAware ADS-B
Mon 17:52:07 39.8420 -88.7620 90° East 469 869 11,887  Level FlightAware ADS-B
Mon 17:52:46 39.8420 -88.6550 90° East 469 869 11,887  Level FlightAware ADS-B
Mon 17:53:16 39.8420 -88.5690 90° East 469 869 11,887  Level FlightAware ADS-B
Mon 17:53:54 39.8420 -88.4620 90° East 470 871 11,887  Level FlightAware ADS-B
Mon 17:54:30 39.8410 -88.3600 91° East 470 871 11,887  Level FlightAware ADS-B
Mon 17:55:01 39.8410 -88.2730 90° East 470 871 11,887  Level FlightAware ADS-B
Mon 17:55:40 39.8400 -88.1640 91° East 469 869 11,887  Level FlightAware ADS-B
Mon 17:56:15 39.8390 -88.0660 91° East 468 867 11,887  Level FlightAware ADS-B
Mon 17:56:47 39.8390 -87.9740 90° East 468 867 11,887  Level FlightAware ADS-B
Mon 17:57:24 39.8430 -87.8710 87° East 469 869 11,887  Level FlightAware ADS-B
Mon 17:57:56 39.8550 -87.7810 80° East 470 871 11,887  Level FlightAware ADS-B
Mon 17:58:33 39.8680 -87.6780 81° East 469 869 11,887  Level FlightAware ADS-B
Mon 17:59:09 39.8800 -87.5780 81° East 468 867 11,887  Level FlightAware ADS-B
Mon 17:59:46 39.8940 -87.4750 80° East 468 867 11,887  Level FlightAware ADS-B
Mon 18:00:17 39.9050 -87.3910 80° East 467 864 11,887  Level FlightAware ADS-B
Mon 18:00:54 39.9180 -87.2900 80° East 466 863 11,887  Level FlightAware ADS-B
Mon 18:01:31 39.9310 -87.1880 81° East 465 861 11,887  Level FlightAware ADS-B
Mon 18:02:03 39.9420 -87.0990 81° East 465 861 11,887  Level FlightAware ADS-B
Mon 18:02:39 39.9550 -86.9980 80° East 465 861 11,887  Level FlightAware ADS-B
Mon 18:03:16 39.9680 -86.8960 81° East 465 861 11,887  Level FlightAware ADS-B
Mon 18:03:49 39.9790 -86.8050 81° East 464 859 11,887  Level FlightAware ADS-B
Mon 18:04:25 39.9920 -86.7060 80° East 463 858 11,887  Level FlightAware ADS-B
Mon 18:05:00 40.0030 -86.6120 81° East 462 856 11,887  Level FlightAware ADS-B
Mon 18:05:36 40.0160 -86.5120 80° East 462 856 11,887  Level FlightAware ADS-B
Mon 18:06:08 40.0260 -86.4250 81° East 462 856 11,887  Level FlightAware ADS-B
Mon 18:06:44 40.0380 -86.3250 81° East 461 855 11,887  Level FlightAware ADS-B
Mon 18:07:20 40.0500 -86.2270 81° East 461 855 11,887  Level FlightAware ADS-B
Mon 18:07:54 40.0610 -86.1340 81° East 461 855 11,887  Level FlightAware ADS-B
Mon 18:08:31 40.0730 -86.0330 81° East 461 855 11,887  Level FlightAware ADS-B
Mon 18:09:03 40.0840 -85.9440 81° East 461 855 11,887  Level FlightAware ADS-B
Mon 18:09:41 40.1070 -85.8460 73° East 461 855 11,887  Level FlightAware ADS-B
Mon 18:10:13 40.1370 -85.7630 65° Northeast 460 851 11,887  Level FlightAware ADS-B
Mon 18:10:49 40.1690 -85.6720 65° Northeast 459 850 11,887  Level FlightAware ADS-B
Mon 18:11:24 40.2010 -85.5830 65° Northeast 459 850 11,887  Level FlightAware ADS-B
Mon 18:11:56 40.2290 -85.5040 65° Northeast 458 848 11,887  Level FlightAware ADS-B
Mon 18:12:33 40.2630 -85.4110 64° Northeast 458 848 11,887  Level FlightAware ADS-B
Mon 18:13:06 40.2920 -85.3300 65° Northeast 456 845 11,887  Level FlightAware ADS-B
Mon 18:13:45 40.3260 -85.2340 65° Northeast 456 845 11,887  Level FlightAware ADS-B
Mon 18:14:22 40.3590 -85.1390 65° Northeast 455 843 11,887  Level FlightAware ADS-B
Mon 18:14:52 40.3860 -85.0630 65° Northeast 454 840 11,887  Level FlightAware ADS-B
Mon 18:15:29 40.4170 -84.9750 65° Northeast 453 838 11,887  Level FlightAware ADS-B
Mon 18:16:05 40.4500 -84.8830 65° Northeast 452 837 11,887  Level FlightAware ADS-B
Mon 18:16:38 40.4790 -84.8000 65° Northeast 452 837 11,887  Level FlightAware ADS-B
Mon 18:17:15 40.5110 -84.7090 65° Northeast 451 835 11,887  Level FlightAware ADS-B
Mon 18:17:52 40.5420 -84.6180 66° East 451 835 11,887  Level FlightAware ADS-B
Mon 18:18:24 40.5700 -84.5370 66° East 450 834 11,887  Level FlightAware ADS-B
Mon 18:18:59 40.6000 -84.4500 66° East 448 830 11,887  Level FlightAware ADS-B
Mon 18:19:36 40.6320 -84.3580 65° Northeast 448 830 11,887  Level FlightAware ADS-B
Mon 18:20:06 40.6580 -84.2830 65° Northeast 448 830 11,887  Level FlightAware ADS-B
Mon 18:20:45 40.6910 -84.1870 66° East 448 830 11,887  Level FlightAware ADS-B
Mon 18:21:20 40.7200 -84.1030 65° Northeast 448 830 11,887  Level FlightAware ADS-B
Mon 18:21:55 40.7490 -84.0150 66° East 448 830 11,887  Level FlightAware ADS-B
Mon 18:22:28 40.7780 -83.9300 66° East 449 832 11,887  Level FlightAware ADS-B
Mon 18:23:04 40.8080 -83.8410 66° East 449 832 11,887  Level FlightAware ADS-B
Mon 18:23:39 40.8380 -83.7530 66° East 450 834 11,887  Level FlightAware ADS-B
Mon 18:24:14 40.8680 -83.6630 66° East 451 835 11,887  Level FlightAware ADS-B
Mon 18:24:51 40.8990 -83.5720 66° East 453 838 11,887  Level FlightAware ADS-B
Mon 18:25:26 40.9290 -83.4810 66° East 454 840 11,887  Level FlightAware ADS-B
Mon 18:25:58 40.9560 -83.4000 66° East 454 840 11,887  Level FlightAware ADS-B
Mon 18:26:34 40.9860 -83.3090 66° East 454 840 11,887  Level FlightAware ADS-B
Mon 18:27:11 41.0170 -83.2160 66° East 454 840 11,887  Level FlightAware ADS-B
Mon 18:27:47 41.0470 -83.1260 66° East 454 840 11,887  Level FlightAware ADS-B
Mon 18:28:18 41.0730 -83.0460 67° East 454 840 11,887  Level FlightAware ADS-B
Mon 18:28:54 41.1030 -82.9530 67° East 454 840 11,887  Level FlightAware ADS-B
Mon 18:29:30 41.1340 -82.8600 66° East 452 837 11,887  Level FlightAware ADS-B
Mon 18:30:07 41.1630 -82.7680 67° East 453 838 11,887  Level FlightAware ADS-B
Mon 18:30:38 41.1900 -82.6860 66° East 453 838 11,887  Level FlightAware ADS-B
Mon 18:31:12 41.2180 -82.6000 67° East 454 840 11,887  Level FlightAware ADS-B
Mon 18:31:48 41.2470 -82.5110 67° East 454 840 11,887  Level FlightAware ADS-B
Mon 18:32:26 41.2790 -82.4100 67° East 454 840 11,887  Level FlightAware ADS-B
Mon 18:33:03 41.3080 -82.3190 67° East 453 838 11,887  Level FlightAware ADS-B
Mon 18:33:34 41.3340 -82.2380 67° East 453 838 11,887  Level FlightAware ADS-B
Mon 18:34:11 41.3640 -82.1430 67° East 454 840 11,887  Level FlightAware ADS-B
Mon 18:34:44 41.3890 -82.0560 69° East 452 837 11,887  Level FlightAware ADS-B
Mon 18:35:18 41.4140 -81.9700 69° East 452 837 11,887  Level FlightAware ADS-B
Mon 18:35:54 41.4410 -81.8720 70° East 452 837 11,887  Level FlightAware ADS-B
Mon 18:36:30 41.4680 -81.7800 69° East 452 837 11,887  Level FlightAware ADS-B
Mon 18:37:07 41.4950 -81.6860 69° East 453 838 11,887  Level FlightAware ADS-B
Mon 18:37:44 41.5230 -81.5880 69° East 453 838 11,887  Level FlightAware ADS-B
Mon 18:38:17 41.5470 -81.5020 70° East 453 838 11,887  Level FlightAware ADS-B
Mon 18:38:51 41.5720 -81.4150 69° East 452 837 11,887  Level FlightAware ADS-B
Mon 18:39:32 41.6020 -81.3050 70° East 451 835 11,887  Level FlightAware ADS-B
Mon 18:40:05 41.6230 -81.2320 69° East 449 832 11,887  Level FlightAware ADS-B
Mon 18:40:46 41.6400 -81.1710 70° East 448 830 11,887  Level FlightAware ADS-B
Mon 18:41:32 41.6820 -81.0190 70° East 444 822 11,887  Level FlightAware ADS-B
Mon 18:42:05 41.7110 -80.9170 69° East 443 821 11,887 -81 Level FlightAware ADS-B
Mon 18:42:40 41.7310 -80.8410 71° East 445 824 11,796 -376 Descending FlightAware ADS-B
Mon 18:43:13 41.7550 -80.7550 69° East 455 843 11,460 -686 Descending FlightAware ADS-B
Mon 18:43:52 41.7890 -80.6300 70° East 474 877 10,973 -601 Descending FlightAware ADS-B
Mon 18:44:26 41.8140 -80.5380 70° East 482 893 10,729 -424 Descending FlightAware ADS-B
Mon 18:45:01 41.8390 -80.4450 70° East 484 896 10,485 -463 Descending FlightAware ADS-B
Mon 18:45:41 41.8720 -80.3260 70° East 492 911 10,150 -463 Descending FlightAware ADS-B
Mon 18:46:16 41.8970 -80.2320 70° East 494 914 9,906 -415 Descending FlightAware ADS-B
Mon 18:46:56 41.9290 -80.1130 70° East 496 919 9,632 -392 Descending FlightAware ADS-B
Mon 18:47:26 41.9520 -80.0250 71° East 500 925 9,449 -169 Descending FlightAware ADS-B
Mon 18:48:01 41.9790 -79.9240 70° East 502 930 9,449  Level FlightAware ADS-B
Mon 18:48:41 42.0110 -79.8060 70° East 496 919 9,449  Level FlightAware ADS-B
Mon 18:49:11 42.0340 -79.7180 71° East 496 919 9,449  Level FlightAware ADS-B
Mon 18:49:46 42.0600 -79.6160 71° East 492 911 9,449  Level FlightAware ADS-B
Mon 18:50:26 42.0900 -79.5020 70° East 490 908 9,449  Level FlightAware ADS-B
Mon 18:50:56 42.1130 -79.4140 71° East 489 906 9,449  Level FlightAware ADS-B
Mon 18:51:31 42.1380 -79.3170 71° East 488 904 9,449  Level FlightAware ADS-B
Mon 18:52:12 42.1680 -79.2000 71° East 488 904 9,449  Level FlightAware ADS-B
Mon 18:52:41 42.1780 -79.1100 81° East 495 917 9,449  Level FlightAware ADS-B
Mon 18:53:19 42.1560 -78.9870 104° East 505 935 9,449  Level FlightAware ADS-B
Mon 18:53:53 42.1300 -78.8850 109° East 505 935 9,449  Level FlightAware ADS-B
Mon 18:54:31 42.1020 -78.7740 109° East 501 929 9,449  Level FlightAware ADS-B
Mon 18:55:03 42.0780 -78.6810 109° East 493 912 9,449  Level FlightAware ADS-B
Mon 18:55:39 42.0460 -78.5810 113° Southeast 493 912 9,449  Level FlightAware ADS-B
Mon 18:56:15 42.0040 -78.4860 121° Southeast 495 917 9,449  Level FlightAware ADS-B
Mon 18:56:52 41.9610 -78.3890 121° Southeast 495 917 9,449  Level FlightAware ADS-B
Mon 18:57:31 41.9240 -78.2800 114° Southeast 490 908 9,449  Level FlightAware ADS-B
Mon 18:58:13 41.9110 -78.1550 98° East 491 909 9,449  Level FlightAware ADS-B
Mon 18:58:48 41.8980 -78.0520 100° East 492 911 9,449  Level FlightAware ADS-B
Mon 18:59:21 41.8840 -77.9680 103° East 489 906 9,449  Level FlightAware ADS-B
Mon 19:00:01 41.8610 -77.8390 103° East 491 909 9,449  Level FlightAware ADS-B
Mon 19:00:31 41.8390 -77.7520 109° East 498 922 9,449  Level FlightAware ADS-B
Mon 19:01:06 41.8140 -77.6540 109° East 499 924 9,449  Level FlightAware ADS-B
Mon 19:01:41 41.7860 -77.5520 110° East 495 917 9,449  Level FlightAware ADS-B
Mon 19:02:16 41.7590 -77.4520 110° East 492 911 9,449  Level FlightAware ADS-B
Mon 19:02:51 41.7310 -77.3470 110° East 491 909 9,449  Level FlightAware ADS-B
Mon 19:03:26 41.7040 -77.2460 110° East 490 908 9,449  Level FlightAware ADS-B
Mon 19:04:01 41.6800 -77.1580 110° East 490 908 9,449  Level FlightAware ADS-B
Mon 19:04:51 41.6390 -77.0030 109° East 500 925 9,449  Level FlightAware ADS-B
Mon 19:05:26 41.6120 -76.9050 110° East 503 932 9,449  Level FlightAware ADS-B
Mon 19:06:01 41.5860 -76.8110 110° East 502 930 9,449  Level FlightAware ADS-B
Mon 19:06:38 41.5560 -76.7000 110° East 497 921 9,449  Level FlightAware ADS-B
Mon 19:07:08 41.5330 -76.6150 110° East 497 921 9,449  Level FlightAware ADS-B
Mon 19:07:48 41.5020 -76.5040 110° East 495 917 9,449  Level FlightAware ADS-B
Mon 19:08:20 41.4720 -76.3950 110° East 498 922 9,449  Level FlightAware ADS-B
Mon 19:08:56 41.4480 -76.3090 110° East 499 924 9,449  Level FlightAware ADS-B
Mon 19:09:34 41.4120 -76.1810 111° Southeast 500 925 9,449  Level FlightAware ADS-B
Mon 19:10:10 41.3830 -76.0780 111° Southeast 500 925 9,449  Level FlightAware ADS-B
Mon 19:10:45 41.3550 -75.9780 110° East 501 929 9,449 -52 Level FlightAware ADS-B
Mon 19:11:20 41.3270 -75.8780 110° East 500 925 9,388 -464 Descending FlightAware ADS-B
Mon 19:11:52 41.3000 -75.7870 112° Southeast 504 933 8,931 -850 Descending FlightAware ADS-B
Mon 19:12:31 41.2670 -75.6720 111° Southeast 495 917 8,382 -716 Descending FlightAware ADS-B
Mon 19:13:01 41.2400 -75.5920 114° Southeast 483 895 8,108 -582 Descending FlightAware ADS-B
Mon 19:13:37 41.2100 -75.5010 114° Southeast 469 869 7,742 -717 Descending FlightAware ADS-B
Mon 19:14:15 41.1750 -75.3960 114° Southeast 461 855 7,224 -618 Descending FlightAware ADS-B
Mon 19:14:48 41.1470 -75.3140 114° Southeast 465 861 7,010 -197 Descending FlightAware ADS-B
Mon 19:15:20 41.1180 -75.2280 114° Southeast 466 863 7,010  Level FlightAware ADS-B
Mon 19:16:00 41.0830 -75.1250 114° Southeast 463 858 7,010  Level FlightAware ADS-B
Mon 19:16:33 41.0530 -75.0360 114° Southeast 464 859 7,010  Level FlightAware ADS-B
Mon 19:17:06 41.0250 -74.9530 114° Southeast 465 861 7,010 -25 Level FlightAware ADS-B
Mon 19:17:45 40.9950 -74.8470 111° Southeast 462 856 6,980 -229 Descending FlightAware ADS-B
Mon 19:18:18 40.9830 -74.7590 100° East 450 834 6,736 -573 Descending FlightAware ADS-B
Mon 19:18:52 40.9740 -74.6690 98° East 442 819 6,340 -727 Descending FlightAware ADS-B
Mon 19:19:31 40.9630 -74.5630 98° East 436 808 5,852 -464 Descending FlightAware ADS-B
Mon 19:20:03 40.9530 -74.4770 99° East 436 808 5,791 -54 Descending FlightAware ADS-B
Mon 19:20:39 40.9430 -74.3840 98° East 423 784 5,791  Level FlightAware ADS-B
Mon 19:21:15 40.9340 -74.3000 98° East 384 711 5,791  Level FlightAware ADS-B
Mon 19:21:47 40.9250 -74.2260 99° East 366 678 5,791  Level FlightAware ADS-B
Mon 19:22:03 40.9190 -74.1940 104° East 362 671 5,791 -105 Level FlightAware ADS-B
Mon 19:22:39 40.8930 -74.1190 115° Southeast 363 673 5,700 -215 Descending FlightAware ADS-B
Mon 19:22:54 40.8823 -74.0880 115° Southeast 360 666 5,608 -506 Descending FlightAware ADS-B
Mon 19:23:26 40.8610 -74.0231 113° Southeast 360 666 5,304 -511 Descending FlightAware ADS-B
Mon 19:24:02 40.8369 -73.9522 114° Southeast 357 661 5,029 -462 Descending FlightAware ADS-B
Mon 19:25:05 40.7840 -73.8400 122° Southeast 348 644 4,542 -457 Descending FlightAware ADS-B
Mon 19:25:22 40.7677 -73.8081 124° Southeast 344 637 4,420 -425 Descending FlightAware ADS-B
Mon 19:26:01 40.7310 -73.7450 127° Southeast 331 613 4,145 -432 Descending FlightAware ADS-B
Mon 19:26:17 40.7110 -73.7300 150° Southeast 321 594 4,023 -533 Descending FlightAware ADS-B
Mon 19:26:49 40.6660 -73.7100 161° South 314 581 3,719 -565 Descending FlightAware ADS-B
Mon 19:27:25 40.6160 -73.6900 163° South 308 570 3,383 -559 Descending FlightAware ADS-B
Mon 19:28:01 40.5690 -73.6710 163° South 298 552 3,048 -533 Descending FlightAware ADS-B
Mon 19:28:13 40.5530 -73.6650 164° South 293 542 2,957 -508 Descending FlightAware ADS-B
Mon 19:28:37 40.5230 -73.6530 163° South 291 539 2,743 -540 Descending FlightAware ADS-B
Mon 19:28:57 40.4960 -73.6440 166° South 288 533 2,560 -533 Descending FlightAware ADS-B
Mon 19:29:25 40.4590 -73.6450 181° South 282 523 2,316 -533 Descending FlightAware ADS-B
Mon 19:29:45 40.4330 -73.6470 183° South 279 517 2,134 -508 Descending FlightAware ADS-B
Mon 19:30:01 40.4140 -73.6560 200° South 270 501 2,012 -457 Descending FlightAware ADS-B
Mon 19:30:05 40.4110 -73.6590 217° Southwest 267 494 1,981 -457 Descending FlightAware ADS-B
Mon 19:30:13 40.4040 -73.6680 224° Southwest 263 488 1,920 -572 Descending FlightAware ADS-B
Mon 19:30:21 40.3990 -73.6790 239° Southwest 260 481 1,829 -549 Descending FlightAware ADS-B
Mon 19:30:33 40.3940 -73.6950 248° West 259 480 1,737 -610 Descending FlightAware ADS-B
Mon 19:30:54 40.3820 -73.7280 244° Southwest 263 488 1,494 -559 Descending FlightAware ADS-B
Mon 19:31:09 40.3740 -73.7490 243° Southwest 264 489 1,402 -366 Descending FlightAware ADS-B
Mon 19:31:29 40.3640 -73.7780 246° West 259 480 1,280 -261 Descending FlightAware ADS-B
Mon 19:31:37 40.3620 -73.7880 255° West 254 470 1,280 -131 Level FlightAware ADS-B
Mon 19:31:43 40.3600 -73.7990 257° West 247 457 1,250 -101 Descending FlightAware ADS-B
Mon 19:31:55 40.3590 -73.8160 266° West 238 441 1,250 -108 Level FlightAware ADS-B
Mon 19:32:17 40.3570 -73.8480 265° West 226 418 1,189 -193 Descending FlightAware ADS-B
Mon 19:32:33 40.3560 -73.8690 266° West 220 407 1,128 -51 Descending FlightAware ADS-B
Mon 19:32:53 40.3610 -73.8920 286° West 202 373 1,158 48 Climbing FlightAware ADS-B
Mon 19:33:11 40.3690 -73.9110 299° West 186 344 1,158 -65 Level FlightAware ADS-B
Mon 19:33:21 40.3740 -73.9200 306° West 180 333 1,128 -101 Descending FlightAware ADS-B
Mon 19:33:29 40.3790 -73.9250 323° Northwest 181 335 1,128 114 Level FlightAware ADS-B
Mon 19:33:37 40.3850 -73.9280 339° North 184 341 1,158  Climbing FlightAware ADS-B
Mon 19:33:59 40.4040 -73.9360 342° North 189 349 1,128 -44 Descending FlightAware ADS-B
Mon 19:34:19 40.4200 -73.9440 339° North 190 352 1,128 -57 Level FlightAware ADS-B
Mon 19:34:31 40.4310 -73.9470 348° North 190 352 1,097 -183 Descending FlightAware ADS-B
Mon 19:34:39 40.4380 -73.9480 354° North 188 348 1,067 -159 Descending FlightAware ADS-B
Mon 19:34:54 40.4520 -73.9500 354° North 192 356 1,036 -51 Descending FlightAware ADS-B
Mon 19:35:15 40.4700 -73.9520 355° North 191 354 1,036  Level FlightAware ADS-B
Mon 19:35:27 40.4800 -73.9540 351° North 191 354 1,036 -114 Level FlightAware ADS-B
Mon 19:35:47 40.4980 -73.9570 353° North 194 359 975 -203 Descending FlightAware ADS-B
Mon 19:36:03 40.5120 -73.9600 351° North 192 356 914 -251 Descending FlightAware ADS-B
Mon 19:36:38 40.5410 -73.9530 10° North 197 365 762 -267 Descending FlightAware ADS-B
Mon 19:36:51 40.5510 -73.9450 31° Northeast 200 370 701 -277 Descending FlightAware ADS-B
Mon 19:37:11 40.5680 -73.9310 32° Northeast 204 378 610 -215 Descending FlightAware ADS-B
Mon 19:37:25 40.5780 -73.9230 31° Northeast 202 373 579 -254 Descending FlightAware ADS-B
Mon 19:37:47 40.5950 -73.9080 34° Northeast 200 370 457 -239 Descending FlightAware ADS-B
Mon 19:38:11 40.6140 -73.8930 31° Northeast 190 352 396 -229 Descending FlightAware ADS-B
Mon 19:38:35 40.6330 -73.8790 29° Northeast 167 309 274 -267 Descending FlightAware ADS-B
Mon 19:38:59 40.6480 -73.8680 29° Northeast 148 274 183 -166 Descending FlightAware ADS-B
Mon 19:39:19 40.6590 -73.8590 32° Northeast 146 270 152 -57 Descending FlightAware ADS-B
Mon 19:39:31 40.6660 -73.8530 33° Northeast 147 272 152  Level FlightAware ADS-B
Mon 19:39:39 40.6690 -73.8470 57° Northeast 140 259 152  Level FlightAware ADS-B
Mon 19:39:47 40.6700 -73.8400 79° East 133 246 152 -65 Level FlightAware ADS-B
Mon 19:40:07 40.6690 -73.8240 95° East 133 246 122 -114 Descending FlightAware ADS-B
Mon 19:40:19 40.6670 -73.8150 106° East 131 243 91 -196 Descending FlightAware ADS-B
Mon 19:40:35 40.6640 -73.8030 108° East 131 243 30 -229 Descending FlightAware ADS-B
Mon 19:40:51 40.6590 -73.7930 123° Southeast 133 246 -375 Descending FlightAware ADS-B
Mon 19:41:11 40.6520 -73.7780 122° Southeast 125 232  Level FlightAware ADS-B
Mon 19:41:19 40.6510 -73.7750 114° Southeast 94 174  Level FlightAware ADS-B

Login

Don't have an account? Register now (free) for customized features, flight alerts, and more!